createdAt,value
2022-10-28T00:01:40.781Z,5.70
2022-10-28T00:04:07.727Z,5.37
2022-10-28T00:06:36.744Z,5.27
2022-10-28T00:09:06.999Z,5.10
2022-10-28T00:11:37.105Z,4.70
2022-10-28T00:14:11.150Z,4.80
2022-10-28T00:16:38.543Z,4.90
2022-10-28T00:19:15.572Z,6.07
2022-10-28T00:21:47.242Z,5.47
2022-10-28T00:24:17.137Z,4.93
2022-10-28T00:26:48.460Z,5.57
2022-10-28T00:29:19.626Z,5.30
2022-10-28T00:31:47.759Z,5.20
2022-10-28T00:34:18.262Z,4.77
2022-10-28T00:36:49.482Z,5.17
2022-10-28T00:39:26.052Z,5.10
2022-10-28T00:42:03.633Z,5.27
2022-10-28T00:44:39.984Z,4.93
2022-10-28T00:47:30.182Z,4.43
2022-10-28T00:50:33.968Z,4.20
2022-10-28T00:53:30.075Z,4.77
2022-10-28T00:56:06.293Z,5.13
2022-10-28T00:58:33.459Z,5.03
2022-10-28T01:01:02.967Z,5.17
2022-10-28T01:03:30.098Z,5.27
2022-10-28T01:06:02.989Z,4.73
2022-10-28T01:08:35.239Z,4.43
2022-10-28T01:11:14.855Z,4.87
2022-10-28T01:14:32.139Z,4.70
2022-10-28T01:17:14.057Z,3.90
2022-10-28T01:19:59.658Z,4.70
2022-10-28T01:22:50.403Z,4.33
2022-10-28T01:26:02.831Z,4.70
2022-10-28T01:29:17.094Z,4.30
2022-10-28T01:32:48.698Z,3.93
2022-10-28T01:35:25.002Z,3.77
2022-10-28T01:38:35.395Z,3.97
2022-10-28T01:41:22.326Z,4.30
2022-10-28T01:44:09.033Z,3.70
2022-10-28T01:46:56.227Z,4.00
2022-10-28T01:49:42.351Z,4.20
2022-10-28T01:52:21.078Z,3.60
2022-10-28T01:54:58.120Z,4.03
2022-10-28T01:57:28.770Z,3.43
2022-10-28T01:59:59.748Z,4.27
2022-10-28T02:02:35.796Z,3.93
2022-10-28T02:05:43.769Z,3.93
2022-10-28T02:08:42.370Z,3.80
2022-10-28T02:11:27.712Z,3.80
2022-10-28T02:14:07.529Z,3.27
2022-10-28T02:16:59.298Z,4.20
2022-10-28T02:20:05.944Z,3.77
2022-10-28T02:22:45.657Z,4.17
2022-10-28T02:25:38.227Z,3.70
2022-10-28T02:30:51.298Z,3.90
2022-10-28T02:33:29.609Z,3.60
2022-10-28T02:36:18.586Z,4.03
2022-10-28T02:38:54.746Z,3.70
2022-10-28T02:41:37.577Z,3.87
2022-10-28T02:44:18.516Z,3.60
2022-10-28T02:46:51.091Z,4.00
2022-10-28T02:49:23.680Z,3.70
2022-10-28T02:51:59.345Z,4.40
2022-10-28T02:54:42.839Z,4.23
2022-10-28T02:57:23.688Z,4.33
2022-10-28T02:59:58.945Z,4.00
2022-10-28T03:02:29.503Z,4.10
2022-10-28T03:04:56.449Z,4.10
2022-10-28T03:07:28.475Z,4.13
2022-10-28T03:09:55.357Z,4.13
2022-10-28T03:12:22.221Z,3.77
2022-10-28T03:14:53.472Z,3.90
2022-10-28T03:17:25.142Z,3.83
2022-10-28T03:19:52.041Z,3.40
2022-10-28T03:22:21.339Z,4.00
2022-10-28T03:24:50.407Z,3.87
2022-10-28T03:27:17.257Z,4.23
2022-10-28T03:29:48.927Z,3.73
2022-10-28T03:32:18.084Z,3.47
2022-10-28T03:34:47.479Z,3.80
2022-10-28T03:37:14.544Z,4.60
2022-10-28T03:39:41.332Z,4.13
2022-10-28T03:42:08.202Z,3.77
2022-10-28T03:44:37.489Z,3.23
2022-10-28T03:47:06.598Z,4.10
2022-10-28T03:49:40.607Z,3.77
2022-10-28T03:52:10.135Z,4.27
2022-10-28T03:54:36.934Z,3.80
2022-10-28T03:57:03.778Z,3.97
2022-10-28T03:59:35.626Z,4.00
2022-10-28T04:02:02.502Z,3.67
2022-10-28T04:04:34.547Z,4.23
2022-10-28T04:07:03.911Z,4.03
2022-10-28T04:09:32.849Z,4.23
2022-10-28T04:11:59.669Z,4.17
2022-10-28T04:14:31.109Z,4.50
2022-10-28T04:17:00.524Z,4.40
2022-10-28T04:19:27.659Z,4.40
2022-10-28T04:21:56.760Z,4.30
2022-10-28T04:24:28.106Z,4.70
2022-10-28T04:26:57.114Z,4.37
2022-10-28T04:29:23.923Z,4.40
2022-10-28T04:31:52.265Z,4.13
2022-10-28T04:34:19.364Z,4.40
2022-10-28T04:36:48.443Z,4.33
2022-10-28T04:39:15.252Z,4.70
2022-10-28T04:41:46.647Z,4.53
2022-10-28T04:44:17.993Z,3.87
2022-10-28T04:46:44.732Z,4.10
2022-10-28T04:49:14.061Z,4.17
2022-10-28T04:54:19.421Z,3.93
2022-10-28T04:56:51.100Z,4.37
2022-10-28T04:59:20.309Z,4.03
2022-10-28T05:01:49.796Z,4.20
2022-10-28T05:04:19.503Z,4.40
2022-10-28T05:06:51.022Z,3.87
2022-10-28T05:09:17.932Z,3.73
2022-10-28T05:11:47.749Z,3.87
2022-10-28T05:14:17.180Z,4.20
2022-10-28T05:16:44.094Z,4.00
2022-10-28T05:19:10.937Z,4.10
2022-10-28T05:21:42.539Z,4.33
2022-10-28T05:24:14.410Z,4.40
2022-10-28T05:26:45.984Z,4.00
2022-10-28T05:29:19.421Z,3.70
2022-10-28T05:31:48.668Z,3.67
2022-10-28T05:34:18.000Z,3.97
2022-10-28T05:36:44.820Z,3.87
2022-10-28T05:39:13.707Z,3.67
2022-10-28T05:41:42.746Z,4.00
2022-10-28T05:44:11.903Z,3.80
2022-10-28T05:46:41.021Z,3.70
2022-10-28T05:49:07.854Z,3.97
2022-10-28T05:51:37.267Z,3.83
2022-10-28T05:54:08.893Z,3.70
2022-10-28T05:56:35.682Z,3.73
2022-10-28T05:59:02.489Z,4.33
2022-10-28T06:01:31.630Z,4.40
2022-10-28T06:03:58.466Z,4.67
2022-10-28T06:06:28.446Z,5.10
2022-10-28T06:08:55.371Z,5.23
2022-10-28T06:11:20.697Z,4.63
2022-10-28T06:13:52.079Z,4.57
2022-10-28T06:16:21.101Z,4.07
2022-10-28T06:18:52.228Z,4.60
2022-10-28T06:21:23.475Z,4.83
2022-10-28T06:23:54.831Z,4.53
2022-10-28T06:26:21.794Z,4.27
2022-10-28T06:28:53.154Z,4.37
2022-10-28T06:31:24.799Z,4.37
2022-10-28T06:33:51.636Z,5.13
2022-10-28T06:36:18.631Z,4.20
2022-10-28T06:38:45.922Z,4.37
2022-10-28T06:41:12.969Z,4.70
2022-10-28T06:43:40.040Z,4.20
2022-10-28T06:46:09.200Z,5.07
2022-10-28T06:48:40.429Z,4.23
2022-10-28T06:51:07.206Z,3.47
2022-10-28T06:53:34.016Z,4.20
2022-10-28T06:56:00.912Z,4.30
2022-10-28T06:58:30.130Z,4.20
2022-10-28T07:01:04.551Z,4.10
2022-10-28T07:03:34.045Z,4.17
2022-10-28T07:06:03.824Z,4.37
2022-10-28T07:08:33.240Z,3.80
2022-10-28T07:11:02.601Z,3.83
2022-10-28T07:13:29.846Z,3.90
2022-10-28T07:16:01.620Z,3.90
2022-10-28T07:18:30.184Z,3.93
2022-10-28T07:21:02.489Z,3.70
2022-10-28T07:23:32.899Z,4.40
2022-10-28T07:26:00.292Z,4.00
2022-10-28T07:28:29.405Z,3.83
2022-10-28T07:31:04.198Z,3.67
2022-10-28T07:33:33.319Z,4.13
2022-10-28T07:36:04.779Z,3.83
2022-10-28T07:38:37.179Z,4.47
2022-10-28T07:41:09.550Z,3.60
2022-10-28T07:43:39.951Z,4.80
2022-10-28T07:46:12.940Z,4.97
2022-10-28T07:48:42.511Z,4.53
2022-10-28T07:51:15.449Z,4.80
2022-10-28T07:53:42.574Z,4.93
2022-10-28T07:56:15.664Z,4.50
2022-10-28T07:58:46.614Z,4.40
2022-10-28T08:01:21.476Z,4.50
2022-10-28T08:03:48.513Z,4.03
2022-10-28T08:06:22.235Z,3.93
2022-10-28T08:08:54.879Z,4.43
2022-10-28T08:11:26.131Z,4.13
2022-10-28T08:13:58.632Z,4.70
2022-10-28T08:16:28.977Z,4.73
2022-10-28T08:19:07.532Z,4.40
2022-10-28T08:21:34.871Z,4.30
2022-10-28T08:24:04.045Z,4.63
2022-10-28T08:26:36.753Z,4.00
2022-10-28T08:29:12.086Z,4.60
2022-10-28T08:31:42.273Z,3.93
2022-10-28T08:34:11.318Z,4.20
2022-10-28T08:36:40.701Z,4.90
2022-10-28T08:39:07.757Z,4.50
2022-10-28T08:41:52.845Z,5.20
2022-10-28T08:45:15.813Z,4.67
2022-10-28T08:48:21.085Z,4.87
2022-10-28T08:51:06.199Z,4.87
2022-10-28T08:53:43.751Z,5.70
2022-10-28T08:56:30.228Z,4.47
2022-10-28T08:59:01.297Z,4.70
2022-10-28T09:01:43.948Z,6.00
2022-10-28T09:04:45.602Z,5.87
2022-10-28T09:07:22.101Z,5.33
2022-10-28T09:09:53.545Z,5.07
2022-10-28T09:13:01.309Z,5.83
2022-10-28T09:15:43.031Z,5.53
2022-10-28T09:18:48.101Z,6.03
2022-10-28T09:21:55.655Z,4.90
2022-10-28T09:24:53.558Z,5.10
2022-10-28T09:27:45.501Z,5.23
2022-10-28T09:30:46.375Z,5.87
2022-10-28T09:33:18.266Z,4.53
2022-10-28T09:35:47.934Z,5.03
2022-10-28T09:38:31.680Z,4.67
2022-10-28T09:41:31.166Z,4.40
2022-10-28T09:44:18.578Z,4.53
2022-10-28T09:46:51.227Z,4.20
2022-10-28T09:49:43.090Z,4.40
2022-10-28T09:52:21.389Z,4.57
2022-10-28T09:54:56.853Z,4.57
2022-10-28T09:57:30.839Z,4.60
2022-10-28T09:59:59.783Z,4.47
2022-10-28T10:02:36.568Z,4.13
2022-10-28T10:05:06.990Z,4.20
2022-10-28T10:07:43.963Z,4.57
2022-10-28T10:10:28.595Z,4.20
2022-10-28T10:13:04.053Z,3.80
2022-10-28T10:15:47.558Z,3.77
2022-10-28T10:18:28.302Z,4.33
2022-10-28T10:21:00.794Z,3.70
2022-10-28T10:23:33.330Z,3.93
2022-10-28T10:26:13.222Z,4.57
2022-10-28T10:28:49.514Z,3.83
2022-10-28T10:31:26.697Z,4.33
2022-10-28T10:33:57.384Z,3.47
2022-10-28T10:36:31.386Z,3.60
2022-10-28T10:39:05.079Z,4.13
2022-10-28T10:41:39.158Z,3.40
2022-10-28T10:44:21.377Z,3.17
2022-10-28T10:47:19.429Z,3.33
2022-10-28T10:49:52.129Z,3.73
2022-10-28T10:52:28.406Z,2.90
2022-10-28T10:55:09.298Z,2.80
2022-10-28T10:57:41.182Z,2.87
2022-10-28T11:00:19.005Z,2.63
2022-10-28T11:02:50.041Z,2.30
2022-10-28T11:05:32.004Z,3.37
2022-10-28T11:08:06.560Z,2.53
2022-10-28T11:10:38.515Z,2.73
2022-10-28T11:13:26.364Z,3.30
2022-10-28T11:16:07.776Z,2.70
2022-10-28T11:18:47.354Z,2.83
2022-10-28T11:21:49.166Z,3.13
2022-10-28T11:24:36.431Z,2.30
2022-10-28T11:27:57.478Z,2.63
2022-10-28T11:33:55.889Z,2.50
2022-10-28T11:37:09.545Z,2.67
2022-10-28T11:40:13.486Z,2.30
2022-10-28T11:43:33.560Z,2.53
2022-10-28T11:46:43.593Z,2.00
2022-10-28T11:49:41.487Z,2.17
2022-10-28T11:52:45.480Z,1.90
2022-10-28T11:55:34.614Z,1.77
2022-10-28T11:58:32.384Z,1.67
2022-10-28T12:01:20.425Z,2.03
2022-10-28T12:04:42.385Z,2.07
2022-10-28T12:07:16.670Z,2.00
2022-10-28T12:09:54.371Z,2.80
2022-10-28T12:12:36.366Z,2.43
2022-10-28T12:15:30.798Z,2.50
2022-10-28T12:19:01.597Z,2.40
2022-10-28T12:21:46.095Z,2.93
2022-10-28T12:24:22.606Z,2.23
2022-10-28T12:27:00.011Z,1.93
2022-10-28T12:29:37.205Z,2.43
2022-10-28T12:32:21.318Z,1.97
2022-10-28T12:35:07.588Z,2.50
2022-10-28T12:37:57.143Z,2.03
2022-10-28T12:40:40.444Z,2.00
2022-10-28T12:43:27.137Z,2.23
2022-10-28T12:46:00.269Z,1.73
2022-10-28T12:48:42.979Z,2.30
2022-10-28T12:51:27.993Z,1.97
2022-10-28T12:54:01.029Z,2.30
2022-10-28T12:56:40.165Z,2.33
2022-10-28T12:59:18.883Z,2.40
2022-10-28T13:01:50.605Z,1.93
2022-10-28T13:04:21.086Z,2.17
2022-10-28T13:07:20.659Z,2.47
2022-10-28T13:10:09.959Z,2.10
2022-10-28T13:12:49.286Z,1.93
2022-10-28T13:15:16.129Z,1.93
2022-10-28T13:18:15.025Z,2.77
2022-10-28T13:21:13.698Z,3.77
2022-10-28T13:24:20.975Z,2.17
2022-10-28T13:26:49.085Z,3.07
2022-10-28T13:29:27.166Z,3.03
2022-10-28T13:31:55.229Z,2.20
2022-10-28T13:34:39.556Z,2.07
2022-10-28T13:37:22.994Z,2.23
2022-10-28T13:39:54.413Z,2.40
2022-10-28T13:42:23.414Z,2.30
2022-10-28T13:44:58.628Z,2.40
2022-10-28T13:47:37.374Z,3.27
2022-10-28T13:50:09.904Z,2.47
2022-10-28T13:52:42.805Z,2.33
2022-10-28T13:55:38.571Z,2.40
2022-10-28T13:58:20.664Z,2.77
2022-10-28T14:00:53.358Z,2.70
2022-10-28T14:03:26.680Z,3.13
2022-10-28T14:06:00.730Z,2.33
2022-10-28T14:08:34.561Z,1.93
2022-10-28T14:11:11.848Z,2.33
2022-10-28T14:13:56.671Z,2.50
2022-10-28T14:16:37.005Z,2.20
2022-10-28T14:19:21.837Z,2.20
2022-10-28T14:22:06.589Z,3.00
2022-10-28T14:24:42.761Z,3.37
2022-10-28T14:27:41.908Z,2.50
2022-10-28T14:30:19.440Z,2.57
2022-10-28T14:33:22.408Z,2.03
2022-10-28T14:36:05.648Z,2.40
2022-10-28T14:39:17.754Z,2.40
2022-10-28T14:42:06.998Z,2.90
2022-10-28T14:45:14.700Z,2.40
2022-10-28T14:48:31.676Z,2.20
2022-10-28T14:51:02.105Z,1.97
2022-10-28T14:53:37.891Z,2.80
2022-10-28T14:56:09.467Z,3.20
2022-10-28T14:58:47.209Z,2.17
2022-10-28T15:01:20.301Z,2.67
2022-10-28T15:04:06.500Z,2.60
2022-10-28T15:06:46.693Z,2.73
2022-10-28T15:09:22.518Z,2.37
2022-10-28T15:11:59.768Z,2.30
2022-10-28T15:14:40.960Z,2.07
2022-10-28T15:17:17.716Z,2.40
2022-10-28T15:19:48.187Z,2.80
2022-10-28T15:22:28.965Z,2.20
2022-10-28T15:25:12.092Z,2.80
2022-10-28T15:27:43.804Z,2.57
2022-10-28T15:30:24.000Z,2.40
2022-10-28T15:32:53.120Z,2.40
2022-10-28T15:35:35.584Z,2.47
2022-10-28T15:38:29.059Z,2.63
2022-10-28T15:40:57.078Z,2.73
2022-10-28T15:43:33.102Z,2.70
2022-10-28T15:46:16.423Z,2.83
2022-10-28T15:48:45.596Z,2.97
2022-10-28T15:51:17.999Z,3.17
2022-10-28T15:53:55.139Z,3.00
2022-10-28T15:56:29.654Z,2.67
2022-10-28T15:59:24.223Z,2.47
2022-10-28T16:01:58.671Z,2.57
2022-10-28T16:04:35.851Z,2.43
2022-10-28T16:07:15.138Z,2.90
2022-10-28T16:09:47.567Z,2.50
2022-10-28T16:12:21.181Z,2.47
2022-10-28T16:15:01.617Z,2.13
2022-10-28T16:17:36.297Z,2.37
2022-10-28T16:20:17.141Z,2.30
2022-10-28T16:22:53.649Z,2.90
2022-10-28T16:25:28.007Z,3.00
2022-10-28T16:27:59.185Z,2.80
2022-10-28T16:30:28.419Z,2.30
2022-10-28T16:32:56.691Z,2.37
2022-10-28T16:35:29.253Z,3.10
2022-10-28T16:38:00.628Z,3.37
2022-10-28T16:43:25.541Z,2.70
2022-10-28T16:45:57.929Z,2.47
2022-10-28T16:48:28.448Z,2.20
2022-10-28T16:51:13.838Z,2.80
2022-10-28T16:53:46.897Z,2.60
2022-10-28T16:56:18.683Z,2.70
2022-10-28T16:58:46.140Z,2.20
2022-10-28T17:01:23.212Z,2.73
2022-10-28T17:03:50.184Z,2.43
2022-10-28T17:06:21.943Z,2.83
2022-10-28T17:09:02.885Z,11.40
2022-10-28T17:14:08.266Z,4.83
2022-10-28T17:16:40.585Z,3.87
2022-10-28T17:19:14.857Z,3.47
2022-10-28T17:21:46.781Z,4.63
2022-10-28T17:24:15.877Z,3.60
2022-10-28T17:26:44.089Z,3.43
2022-10-28T17:29:13.509Z,2.70
2022-10-28T17:31:44.798Z,3.50
2022-10-28T17:34:11.798Z,3.77
2022-10-28T17:36:38.730Z,3.67
2022-10-28T17:39:16.405Z,3.00
2022-10-28T17:41:47.162Z,3.10
2022-10-28T17:44:14.503Z,3.27
2022-10-28T17:46:43.463Z,3.20
2022-10-28T17:49:10.314Z,2.80
2022-10-28T17:51:40.300Z,3.43
2022-10-28T17:54:07.222Z,3.43
2022-10-28T17:56:35.066Z,2.97
2022-10-28T17:59:06.736Z,3.23
2022-10-28T18:01:35.812Z,3.10
2022-10-28T18:04:06.098Z,3.77
2022-10-28T18:06:33.397Z,2.87
2022-10-28T18:09:03.618Z,3.67
2022-10-28T18:11:34.068Z,3.27
2022-10-28T18:14:04.938Z,3.10
2022-10-28T18:16:32.435Z,3.13
2022-10-28T18:19:05.524Z,3.60
2022-10-28T18:21:37.684Z,3.13
2022-10-28T18:24:09.794Z,3.10
2022-10-28T18:26:38.924Z,2.97
2022-10-28T18:29:10.109Z,2.83
2022-10-28T18:31:40.506Z,3.50
2022-10-28T18:34:10.151Z,3.10
2022-10-28T18:36:39.849Z,3.77
2022-10-28T18:39:12.364Z,3.50
2022-10-28T18:41:42.572Z,2.80
2022-10-28T18:44:20.140Z,3.33
2022-10-28T18:46:51.204Z,3.20
2022-10-28T18:49:20.491Z,3.40
2022-10-28T18:51:47.371Z,4.43
2022-10-28T18:54:19.243Z,3.47
2022-10-28T18:56:49.237Z,3.50
2022-10-28T18:59:20.292Z,4.13
2022-10-28T19:01:48.239Z,3.40
2022-10-28T19:04:19.899Z,3.80
2022-10-28T19:06:49.360Z,3.83
2022-10-28T19:09:16.233Z,4.03
2022-10-28T19:11:43.246Z,3.37
2022-10-28T19:14:12.783Z,3.67
2022-10-28T19:16:39.605Z,3.80
2022-10-28T19:19:11.285Z,3.00
2022-10-28T19:21:40.638Z,3.53
2022-10-28T19:24:08.018Z,3.13
2022-10-28T19:26:39.372Z,3.40
2022-10-28T19:29:10.318Z,3.90
2022-10-28T19:31:40.770Z,3.13
2022-10-28T19:34:10.761Z,3.40
2022-10-28T19:36:42.419Z,3.70
2022-10-28T19:39:11.518Z,2.83
2022-10-28T19:41:45.396Z,2.83
2022-10-28T19:44:16.837Z,3.27
2022-10-28T19:46:48.251Z,3.50
2022-10-28T19:49:15.312Z,3.90
2022-10-28T19:51:42.301Z,3.60
2022-10-28T19:54:15.714Z,3.80
2022-10-28T19:56:48.018Z,3.43
2022-10-28T19:59:15.581Z,3.10
2022-10-28T20:01:45.699Z,3.80
2022-10-28T20:04:17.376Z,3.17
2022-10-28T20:06:44.240Z,3.20
2022-10-28T20:09:16.280Z,3.17
2022-10-28T20:11:45.513Z,3.13
2022-10-28T20:14:13.059Z,3.43
2022-10-28T20:16:43.535Z,3.17
2022-10-28T20:19:15.154Z,3.20
2022-10-28T20:21:45.026Z,3.07
2022-10-28T20:24:14.002Z,3.00
2022-10-28T20:26:48.082Z,3.27
2022-10-28T20:29:19.515Z,3.23
2022-10-28T20:31:48.430Z,3.03
2022-10-28T20:34:17.776Z,2.63
2022-10-28T20:36:44.782Z,3.20
2022-10-28T20:39:22.013Z,2.53
2022-10-28T20:41:54.448Z,3.10
2022-10-28T20:44:21.405Z,3.43
2022-10-28T20:46:55.279Z,3.20
2022-10-28T20:49:24.436Z,3.47
2022-10-28T20:51:54.473Z,3.10
2022-10-28T20:54:21.293Z,3.50
2022-10-28T20:56:50.287Z,3.23
2022-10-28T20:59:17.147Z,3.10
2022-10-28T21:01:51.963Z,3.27
2022-10-28T21:04:21.341Z,3.87
2022-10-28T21:06:48.358Z,5.40
2022-10-28T21:09:17.593Z,3.60
2022-10-28T21:11:45.306Z,4.23
2022-10-28T21:14:12.335Z,3.93
2022-10-28T21:16:39.324Z,3.30
2022-10-28T21:19:11.019Z,4.57
2022-10-28T21:21:40.086Z,3.77
2022-10-28T21:24:07.390Z,3.90
2022-10-28T21:26:34.241Z,3.77
2022-10-28T21:29:03.739Z,4.27
2022-10-28T21:31:31.439Z,5.23
2022-10-28T21:34:00.701Z,3.90
2022-10-28T21:36:34.442Z,3.83
2022-10-28T21:39:03.963Z,5.30
2022-10-28T21:41:33.324Z,3.87
2022-10-28T21:44:07.917Z,3.47
2022-10-28T21:46:42.091Z,3.77
2022-10-28T21:49:11.280Z,4.33
2022-10-28T21:51:38.174Z,3.60
2022-10-28T21:54:05.240Z,5.00
2022-10-28T21:56:37.484Z,4.40
2022-10-28T21:59:08.702Z,3.67
2022-10-28T22:01:36.936Z,4.63
2022-10-28T22:04:06.910Z,3.70
2022-10-28T22:06:34.030Z,3.10
2022-10-28T22:09:05.400Z,3.77
2022-10-28T22:11:32.511Z,3.80
2022-10-28T22:14:04.257Z,3.53
2022-10-28T22:16:38.084Z,3.60
2022-10-28T22:19:13.356Z,3.63
2022-10-28T22:21:40.325Z,5.10
2022-10-28T22:24:10.753Z,3.27
2022-10-28T22:26:42.345Z,3.90
2022-10-28T22:29:13.726Z,3.63
2022-10-28T22:31:40.744Z,4.77
2022-10-28T22:34:14.210Z,4.70
2022-10-28T22:36:44.935Z,3.93
2022-10-28T22:39:14.038Z,4.33
2022-10-28T22:41:42.975Z,4.13
2022-10-28T22:44:12.294Z,3.30
2022-10-28T22:46:44.414Z,3.60
2022-10-28T22:49:11.212Z,3.73
2022-10-28T22:51:38.457Z,3.43
2022-10-28T22:54:05.668Z,3.50
2022-10-28T22:56:35.103Z,3.40
2022-10-28T22:59:04.874Z,3.97
2022-10-28T23:01:32.323Z,4.20
2022-10-28T23:04:00.801Z,4.07
2022-10-28T23:06:30.277Z,3.90
2022-10-28T23:08:57.718Z,4.23
2022-10-28T23:11:27.093Z,3.80
2022-10-28T23:13:58.649Z,3.40
2022-10-28T23:16:30.339Z,3.73
2022-10-28T23:19:00.643Z,3.13
2022-10-28T23:21:27.801Z,3.77
2022-10-28T23:24:00.785Z,4.27
2022-10-28T23:26:32.660Z,4.93
2022-10-28T23:29:00.673Z,4.60
2022-10-28T23:31:32.850Z,4.07
2022-10-28T23:34:02.543Z,4.17
2022-10-28T23:36:34.653Z,4.20
2022-10-28T23:39:01.535Z,4.50
2022-10-28T23:41:30.795Z,4.90
2022-10-28T23:44:03.242Z,5.47
2022-10-28T23:46:37.392Z,5.13
2022-10-28T23:49:04.561Z,5.07
2022-10-28T23:51:33.922Z,5.00
2022-10-28T23:54:03.468Z,4.63
2022-10-28T23:56:33.216Z,3.80
2022-10-28T23:59:00.183Z,4.70
